Time;durP1;ratioP1;P1;durP2;ratioP2;P2;SDS_P1;SDS_P2;PMS_P1;PMS_P2;Temp;Humidity;BMP_temperature;BMP_pressure;BME280_temperature;BME280_humidity;BME280_pressure;Samples;Min_cycle;Max_cycle;Signal;HPM_P1;HPM_P2
2022/04/06 00:01:17;;;;;;;25.63;4.95;;;;;;;12.75;63.38;100459.00;4951746;28;20751;-59
2022/04/06 00:03:46;;;;;;;21.35;4.80;;;;;;;12.74;63.48;100461.66;4950492;28;20573;-59
2022/04/06 00:06:11;;;;;;;24.20;4.93;;;;;;;12.71;63.99;100453.78;4948345;28;20469;-59
2022/04/06 00:08:36;;;;;;;23.50;5.03;;;;;;;12.73;63.78;100454.66;4944647;28;20159;-59
2022/04/06 00:11:02;;;;;;;27.08;5.20;;;;;;;12.72;63.91;100447.69;4952856;28;20152;-61
2022/04/06 00:13:28;;;;;;;22.65;5.35;;;;;;;12.76;63.78;100446.78;4951202;28;20050;-59
2022/04/06 00:15:54;;;;;;;27.20;5.55;;;;;;;12.65;63.85;100448.56;4947409;28;20075;-59
2022/04/06 00:18:19;;;;;;;27.85;5.10;;;;;;;12.75;63.53;100443.31;4948931;28;20085;-59
2022/04/06 00:20:45;;;;;;;21.92;5.20;;;;;;;12.70;63.73;100442.44;4950668;28;20109;-59
2022/04/06 00:23:10;;;;;;;24.60;5.38;;;;;;;12.66;63.75;100440.72;4955983;28;20034;-60
2022/04/06 00:25:35;;;;;;;24.05;5.25;;;;;;;12.73;63.36;100434.63;4942832;28;20042;-59
2022/04/06 00:28:00;;;;;;;24.13;5.40;;;;;;;12.82;63.53;100438.94;4949581;28;20042;-59
2022/04/06 00:30:26;;;;;;;18.00;5.10;;;;;;;12.86;63.14;100433.72;4953359;28;20038;-59
2022/04/06 00:32:51;;;;;;;18.08;4.82;;;;;;;12.87;62.86;100442.41;4955800;28;20058;-57
2022/04/06 00:35:28;;;;;;;25.48;5.38;;;;;;;12.91;62.95;100431.06;4945173;28;20130;-59
2022/04/06 00:37:59;;;;;;;22.48;5.03;;;;;;;12.98;62.73;100440.66;4947622;28;20043;-58
2022/04/06 00:40:25;;;;;;;22.88;5.70;;;;;;;12.94;62.78;100431.03;4950925;28;20045;-60
2022/04/06 00:42:53;;;;;;;23.95;4.88;;;;;;;12.92;62.77;100424.97;4948569;28;20398;-58
2022/04/06 00:45:19;;;;;;;21.92;5.00;;;;;;;12.91;62.63;100418.88;4951037;28;20042;-59
2022/04/06 00:47:44;;;;;;;25.38;4.68;;;;;;;12.98;62.29;100420.59;4955301;28;20514;-60
2022/04/06 00:50:09;;;;;;;16.23;4.72;;;;;;;12.97;61.98;100417.97;4947160;28;20065;-59
2022/04/06 00:52:36;;;;;;;20.90;4.57;;;;;;;12.98;61.56;100402.28;4952600;28;20045;-59
2022/04/06 00:55:02;;;;;;;19.73;4.32;;;;;;;13.00;61.17;100403.13;4953302;28;20038;-59
2022/04/06 00:57:28;;;;;;;15.88;4.10;;;;;;;12.99;60.93;100397.91;4954059;28;20153;-58
2022/04/06 00:59:56;;;;;;;15.23;3.75;;;;;;;12.95;60.13;100404.88;4957279;28;20054;-60
2022/04/06 01:02:21;;;;;;;14.65;3.53;;;;;;;13.06;59.58;100399.59;4949389;28;20633;-59
2022/04/06 01:04:47;;;;;;;15.65;4.05;;;;;;;12.86;60.04;100396.22;4954857;28;20392;-59
2022/04/06 01:07:12;;;;;;;11.40;3.38;;;;;;;13.01;59.57;100401.38;4957368;28;20873;-59
2022/04/06 01:09:38;;;;;;;19.90;4.00;;;;;;;12.95;59.49;100393.53;4948187;28;20051;-59
2022/04/06 01:12:04;;;;;;;13.73;3.22;;;;;;;12.92;59.38;100391.81;4946667;28;20039;-61
2022/04/06 01:14:29;;;;;;;16.20;3.88;;;;;;;12.96;59.27;100385.69;4948891;28;20493;-59
2022/04/06 01:16:59;;;;;;;17.95;4.20;;;;;;;13.00;59.44;100397.00;4954366;28;20128;-59
2022/04/06 01:19:39;;;;;;;14.40;3.90;;;;;;;12.95;59.12;100398.78;4952085;28;20434;-59
2022/04/06 01:22:15;;;;;;;14.02;3.65;;;;;;;12.92;58.93;100390.94;4951293;28;20625;-59
2022/04/06 01:24:42;;;;;;;17.25;3.60;;;;;;;12.91;58.90;100392.69;4953808;28;20082;-58
2022/04/06 01:27:08;;;;;;;10.98;3.70;;;;;;;12.91;58.76;100391.81;4955235;28;20472;-58
2022/04/06 01:29:34;;;;;;;14.38;3.47;;;;;;;12.82;58.93;100391.84;4950437;28;20454;-58
2022/04/06 01:32:18;;;;;;;14.40;3.42;;;;;;;12.85;59.03;100386.63;4947084;28;20073;-60
2022/04/06 01:34:44;;;;;;;10.33;3.20;;;;;;;12.89;58.92;100381.34;4951793;28;20456;-59
2022/04/06 01:37:15;;;;;;;15.02;3.60;;;;;;;12.87;58.98;100390.06;4958845;28;20647;-61
2022/04/06 01:39:44;;;;;;;14.88;3.42;;;;;;;12.90;59.16;100383.09;4950549;28;20046;-59
2022/04/06 01:42:11;;;;;;;18.08;3.50;;;;;;;12.83;59.20;100389.22;4950955;28;20376;-59
2022/04/06 01:44:37;;;;;;;13.82;3.20;;;;;;;12.77;59.32;100397.09;4946577;28;20307;-59
2022/04/06 01:47:05;;;;;;;12.80;3.45;;;;;;;12.82;59.27;100382.25;4953399;28;20046;-60
2022/04/06 01:52:15;;;;;;;18.70;3.97;;;;;;;12.79;58.87;100390.13;4944875;28;20121;-59
2022/04/06 01:54:45;;;;;;;12.93;3.30;;;;;;;12.84;58.88;100390.09;4949550;28;20051;-59
2022/04/06 01:57:11;;;;;;;13.13;3.20;;;;;;;12.83;58.94;100390.97;4955775;28;20097;-59
2022/04/06 01:59:37;;;;;;;9.52;3.10;;;;;;;12.84;59.10;100390.09;4955672;28;20079;-59
2022/04/06 02:02:04;;;;;;;13.85;3.47;;;;;;;12.81;59.28;100383.13;4947995;28;20039;-60
2022/04/06 02:04:29;;;;;;;11.80;3.67;;;;;;;12.77;59.08;100383.16;4951419;28;20074;-59
2022/04/06 02:06:54;;;;;;;10.18;3.10;;;;;;;12.82;59.01;100379.63;4967447;28;20125;-60
2022/04/06 02:09:20;;;;;;;13.82;3.20;;;;;;;12.81;58.84;100369.16;4955000;28;20073;-60
2022/04/06 02:11:47;;;;;;;12.00;3.22;;;;;;;12.80;58.72;100375.31;4957512;28;20595;-60
2022/04/06 02:14:13;;;;;;;10.68;3.15;;;;;;;12.74;59.16;100376.19;4938652;28;20042;-59
2022/04/06 02:16:38;;;;;;;12.00;2.88;;;;;;;12.66;59.03;100370.13;4955462;28;20043;-60
2022/04/06 02:19:07;;;;;;;14.63;3.30;;;;;;;12.64;59.05;100371.84;4951966;28;20042;-59
2022/04/06 02:21:33;;;;;;;13.57;3.25;;;;;;;12.66;58.64;100366.63;4945535;28;20046;-59
2022/04/06 02:23:58;;;;;;;14.38;3.35;;;;;;;12.62;58.75;100363.16;4943396;28;20390;-61
2022/04/06 02:26:25;;;;;;;15.98;3.20;;;;;;;12.55;58.55;100366.66;4956013;28;20040;-59
2022/04/06 02:28:50;;;;;;;11.35;3.00;;;;;;;12.50;58.33;100356.19;4952862;28;21309;-60
2022/04/06 02:31:16;;;;;;;7.57;2.72;;;;;;;12.49;58.18;100351.88;4949991;28;20042;-59
2022/04/06 02:33:41;;;;;;;12.63;2.90;;;;;;;12.50;58.35;100353.56;4938306;28;20483;-61
2022/04/06 02:36:07;;;;;;;11.75;2.55;;;;;;;12.43;57.80;100351.88;4944576;28;20648;-59
2022/04/06 02:38:32;;;;;;;11.57;2.80;;;;;;;12.34;57.89;100336.19;4949685;28;20161;-59
2022/04/06 02:40:58;;;;;;;10.07;2.40;;;;;;;12.25;58.30;100333.63;4949594;28;20070;-58
2022/04/06 02:43:23;;;;;;;8.82;2.75;;;;;;;12.31;57.85;100340.59;4955038;28;20046;-59
2022/04/06 02:45:49;;;;;;;10.85;2.75;;;;;;;12.21;58.23;100339.72;4948859;28;20138;-60
2022/04/06 02:48:16;;;;;;;8.35;2.40;;;;;;;12.30;58.17;100338.84;4943592;28;21053;-60
2022/04/06 02:50:42;;;;;;;9.38;2.65;;;;;;;12.31;57.81;100337.97;4958652;28;20456;-59
2022/04/06 02:53:07;;;;;;;14.35;2.83;;;;;;;12.18;57.94;100332.75;4953186;28;20395;-58
2022/04/06 02:55:33;;;;;;;10.82;2.40;;;;;;;12.10;58.15;100333.63;4949101;28;20053;-59
2022/04/06 02:57:58;;;;;;;10.40;2.30;;;;;;;12.20;57.59;100332.75;4944266;28;20446;-60
2022/04/06 03:00:23;;;;;;;8.73;2.20;;;;;;;12.30;57.61;100320.53;4956628;28;20042;-60
2022/04/06 03:02:50;;;;;;;9.90;2.30;;;;;;;12.22;57.84;100319.69;4951274;28;20038;-59
2022/04/06 03:05:15;;;;;;;9.32;2.20;;;;;;;12.11;57.69;100309.25;4966410;28;20041;-59
2022/04/06 03:07:41;;;;;;;10.57;2.33;;;;;;;12.07;58.14;100310.16;4958748;28;20050;-58
2022/04/06 03:10:07;;;;;;;8.68;1.95;;;;;;;12.06;58.36;100311.00;4946854;28;20040;-58
2022/04/06 03:12:32;;;;;;;11.32;2.17;;;;;;;12.01;58.30;100302.31;4956448;28;20617;-58
2022/04/06 03:14:58;;;;;;;10.60;2.63;;;;;;;12.05;58.34;100302.31;4956940;28;20231;-59
2022/04/06 03:17:23;;;;;;;6.28;1.92;;;;;;;12.16;57.66;100308.38;4957100;28;20050;-59
2022/04/06 03:19:50;;;;;;;11.98;2.13;;;;;;;12.18;57.88;100311.00;4959338;28;20373;-59
2022/04/06 03:22:17;;;;;;;14.50;2.35;;;;;;;12.24;58.15;100310.97;4946850;28;20180;-59
2022/04/06 03:24:47;;;;;;;12.27;1.95;;;;;;;12.19;57.89;100307.50;4954875;28;20038;-59
2022/04/06 03:27:13;;;;;;;9.18;1.92;;;;;;;12.12;58.00;100309.25;4957236;28;20073;-59
2022/04/06 03:29:40;;;;;;;5.68;1.70;;;;;;;12.11;58.33;100299.69;4952487;28;20783;-59
2022/04/06 03:32:09;;;;;;;14.07;2.15;;;;;;;12.16;57.98;100297.91;4948534;28;20471;-59
2022/04/06 03:34:36;;;;;;;11.80;2.08;;;;;;;12.06;58.39;100296.22;4957920;28;20055;-59
2022/04/06 03:37:01;;;;;;;14.50;1.95;;;;;;;12.01;58.75;100290.13;4959621;28;20058;-59
2022/04/06 03:39:27;;;;;;;9.82;2.10;;;;;;;12.00;58.29;100293.59;4950701;28;20039;-59
2022/04/06 03:41:52;;;;;;;11.13;2.10;;;;;;;11.89;58.65;100284.06;4954919;28;20053;-58
2022/04/06 03:44:18;;;;;;;9.73;2.15;;;;;;;11.96;58.67;100277.91;4951967;28;20556;-59
2022/04/06 03:46:43;;;;;;;8.77;1.88;;;;;;;11.76;59.01;100284.06;4950433;28;20043;-60
2022/04/06 03:49:09;;;;;;;14.07;2.30;;;;;;;11.83;58.75;100276.22;4955875;28;20164;-59
2022/04/06 03:51:34;;;;;;;14.48;2.35;;;;;;;11.82;58.93;100277.09;4953624;28;20503;-59
2022/04/06 03:54:00;;;;;;;10.48;2.10;;;;;;;11.79;58.70;100275.34;4950302;28;20042;-60
2022/04/06 03:56:26;;;;;;;13.63;2.10;;;;;;;11.66;59.22;100270.97;4954805;28;20473;-59
2022/04/06 03:58:51;;;;;;;9.65;1.90;;;;;;;11.68;59.37;100266.63;4960824;28;20428;-59
2022/04/06 04:01:17;;;;;;;11.05;2.53;;;;;;;11.66;59.48;100265.72;4952684;28;20050;-59
2022/04/06 04:03:42;;;;;;;10.93;2.10;;;;;;;11.56;60.16;100269.22;4952662;28;20564;-59
2022/04/06 04:06:08;;;;;;;12.73;2.25;;;;;;;11.49;60.86;100268.34;4943660;28;20671;-58
2022/04/06 04:08:33;;;;;;;18.38;2.63;;;;;;;11.57;60.83;100263.16;4955293;28;20042;-59
2022/04/06 04:10:59;;;;;;;14.63;3.00;;;;;;;11.59;60.99;100251.81;4958943;28;20081;-59
2022/04/06 04:13:33;;;;;;;20.58;2.63;;;;;;;11.63;61.41;100252.69;4956768;28;20065;-58
2022/04/06 04:15:59;;;;;;;21.30;2.83;;;;;;;11.65;62.11;100253.53;4945716;28;20038;-59
2022/04/06 04:18:24;;;;;;;18.63;2.78;;;;;;;11.71;62.30;100250.97;4957827;28;20383;-59
2022/04/06 04:20:49;;;;;;;17.23;2.80;;;;;;;11.68;62.34;100243.13;4951921;28;20070;-61
2022/04/06 04:23:15;;;;;;;16.90;3.10;;;;;;;11.72;62.42;100245.72;4955897;28;20047;-58
2022/04/06 04:25:40;;;;;;;15.07;3.13;;;;;;;11.77;62.64;100246.59;4955716;28;20050;-60
2022/04/06 04:28:06;;;;;;;22.73;3.15;;;;;;;11.59;63.28;100238.75;4949491;28;20360;-59
2022/04/06 04:30:32;;;;;;;14.63;2.78;;;;;;;11.80;62.50;100245.75;4945398;28;20160;-63
2022/04/06 04:32:57;;;;;;;16.92;2.53;;;;;;;11.86;62.10;100232.66;4943476;28;20050;-59
2022/04/06 04:35:23;;;;;;;13.50;2.83;;;;;;;11.86;62.09;100222.22;4955921;28;20169;-59
2022/04/06 04:37:49;;;;;;;15.93;2.67;;;;;;;11.91;61.43;100223.06;4948088;28;20152;-60
2022/04/06 04:40:16;;;;;;;16.55;2.95;;;;;;;11.97;61.50;100223.06;4942400;28;20065;-59
2022/04/06 04:42:42;;;;;;;13.52;2.35;;;;;;;11.93;61.33;100217.84;4951776;28;20054;-59
2022/04/06 04:45:09;;;;;;;14.73;2.40;;;;;;;11.91;61.59;100227.44;4954420;28;20795;-59
2022/04/06 04:47:34;;;;;;;11.07;2.40;;;;;;;11.97;61.13;100219.56;4954161;28;20104;-60
2022/04/06 04:50:00;;;;;;;12.90;2.85;;;;;;;12.05;60.88;100230.88;4951351;28;20054;-60
2022/04/06 04:52:25;;;;;;;13.52;2.60;;;;;;;11.91;61.35;100228.31;4954324;28;20046;-59
2022/04/06 04:54:50;;;;;;;14.77;2.92;;;;;;;12.07;60.60;100222.19;4958135;28;20042;-59
2022/04/06 04:57:16;;;;;;;17.90;2.70;;;;;;;12.01;61.05;100221.34;4958055;28;20053;-58
2022/04/06 04:59:41;;;;;;;11.43;2.45;;;;;;;12.08;60.77;100220.41;4955087;28;20583;-58
2022/04/06 05:02:07;;;;;;;14.50;2.90;;;;;;;12.14;60.73;100217.78;4948994;28;20384;-59
2022/04/06 05:04:32;;;;;;;12.93;2.50;;;;;;;12.06;61.36;100211.72;4951557;28;20612;-59
2022/04/06 05:06:57;;;;;;;13.50;2.70;;;;;;;12.15;61.17;100211.69;4958024;28;20030;-61
2022/04/06 05:09:23;;;;;;;13.80;2.40;;;;;;;12.15;61.18;100209.94;4953799;28;20209;-59
2022/04/06 05:11:48;;;;;;;17.77;2.50;;;;;;;12.22;61.29;100204.69;4950680;28;20152;-58
2022/04/06 05:14:13;;;;;;;11.65;2.53;;;;;;;12.27;60.95;100209.03;4943893;28;20411;-58
2022/04/06 05:16:39;;;;;;;10.43;2.38;;;;;;;12.27;60.75;100205.53;4957335;28;20046;-60
2022/04/06 05:19:04;;;;;;;13.80;2.40;;;;;;;12.22;61.23;100199.47;4953470;28;20154;-58
2022/04/06 05:21:30;;;;;;;10.00;2.10;;;;;;;12.18;61.23;100193.41;4946632;28;20054;-60
2022/04/06 05:23:57;;;;;;;13.27;2.55;;;;;;;12.25;61.00;100202.09;4951061;28;20152;-59
2022/04/06 05:26:22;;;;;;;12.85;2.25;;;;;;;12.27;60.62;100201.19;4950285;28;20037;-58
2022/04/06 05:28:48;;;;;;;13.70;2.40;;;;;;;12.39;60.45;100198.50;4957393;28;20042;-59
2022/04/06 05:31:14;;;;;;;14.20;2.45;;;;;;;12.37;60.47;100204.63;4957591;28;20052;-59
2022/04/06 05:33:40;;;;;;;17.15;2.42;;;;;;;12.35;60.36;100204.63;4952696;28;20517;-60
2022/04/06 05:36:05;;;;;;;12.00;2.50;;;;;;;12.35;60.16;100204.63;4942619;28;20153;-62
2022/04/06 05:38:34;;;;;;;14.70;2.25;;;;;;;12.43;59.93;100207.22;4952985;28;20042;-59
2022/04/06 05:40:59;;;;;;;13.65;2.33;;;;;;;12.38;59.90;100209.84;4960685;28;20141;-59
2022/04/06 05:43:25;;;;;;;12.50;2.58;;;;;;;12.33;59.63;100195.94;4951400;28;20531;-59
2022/04/06 05:45:50;;;;;;;11.68;2.42;;;;;;;12.42;59.38;100193.28;4953519;28;20216;-59
2022/04/06 05:48:16;;;;;;;15.63;2.08;;;;;;;12.25;59.59;100200.34;4943057;28;20034;-60
2022/04/06 05:50:41;;;;;;;13.68;2.20;;;;;;;12.40;59.03;100196.78;4949117;28;21600;-59
2022/04/06 05:53:06;;;;;;;12.57;2.67;;;;;;;12.41;58.94;100204.63;4952490;28;20584;-60
2022/04/06 05:55:32;;;;;;;16.90;2.60;;;;;;;12.44;58.15;100191.50;4953411;28;20086;-60
2022/04/06 05:57:57;;;;;;;14.63;2.70;;;;;;;12.47;58.57;100198.47;4953688;28;20801;-61
2022/04/06 06:00:22;;;;;;;11.05;2.50;;;;;;;12.48;58.13;100190.63;4946162;28;20524;-58
2022/04/06 06:02:49;;;;;;;14.15;2.42;;;;;;;12.46;58.03;100191.50;4937257;28;20045;-58
2022/04/06 06:05:15;;;;;;;13.73;2.50;;;;;;;12.53;57.74;100190.59;4958330;28;20061;-59
2022/04/06 06:07:40;;;;;;;17.08;2.15;;;;;;;12.53;57.59;100188.00;4951982;28;20486;-61
2022/04/06 06:10:06;;;;;;;11.77;2.45;;;;;;;12.26;58.58;100191.59;4944266;28;20058;-59
2022/04/06 06:12:31;;;;;;;9.68;2.33;;;;;;;12.40;57.54;100187.19;4951547;28;20473;-59
2022/04/06 06:14:57;;;;;;;14.60;2.30;;;;;;;12.51;57.82;100184.50;4948706;28;20054;-59
2022/04/06 06:17:22;;;;;;;14.73;2.30;;;;;;;12.39;57.53;100177.59;4952012;28;20444;-59
2022/04/06 06:19:48;;;;;;;12.98;2.40;;;;;;;12.48;57.22;100174.09;4960423;28;20763;-59
2022/04/06 06:22:13;;;;;;;12.77;2.50;;;;;;;12.66;57.07;100179.19;4943351;28;20034;-59
2022/04/06 06:24:38;;;;;;;9.77;2.38;;;;;;;12.52;57.32;100171.44;4953408;28;20046;-59
2022/04/06 06:27:04;;;;;;;15.65;2.40;;;;;;;12.74;56.84;100174.81;4949920;28;20325;-60
2022/04/06 06:29:30;;;;;;;9.40;2.10;;;;;;;12.74;57.00;100180.03;4949912;28;20557;-59
2022/04/06 06:31:55;;;;;;;12.27;1.98;;;;;;;12.86;56.78;100179.94;4945000;28;20117;-59
2022/04/06 06:34:21;;;;;;;14.23;2.20;;;;;;;12.81;56.88;100179.09;4939570;28;20077;-61
2022/04/06 06:36:47;;;;;;;15.40;2.05;;;;;;;12.86;56.98;100184.31;4950581;28;20058;-59
2022/04/06 06:39:12;;;;;;;13.40;2.28;;;;;;;12.81;57.18;100180.84;4959020;28;20051;-59
2022/04/06 06:41:37;;;;;;;12.88;2.28;;;;;;;12.89;56.94;100181.66;4955353;28;20043;-59
2022/04/06 06:44:03;;;;;;;11.77;2.35;;;;;;;12.81;58.17;100172.97;4943469;28;20516;-60
2022/04/06 06:46:32;;;;;;;13.45;2.20;;;;;;;12.83;59.40;100160.78;4957504;28;20467;-59
2022/04/06 06:49:03;;;;;;;11.73;2.20;;;;;;;12.60;60.71;100160.94;4958742;28;20047;-61
2022/04/06 06:51:32;;;;;;;12.85;2.00;;;;;;;12.56;61.21;100165.28;4955864;28;20042;-60
2022/04/06 06:53:58;;;;;;;11.73;2.20;;;;;;;12.49;61.97;100167.97;4966871;28;20506;-60
2022/04/06 06:56:24;;;;;;;12.68;2.35;;;;;;;12.63;61.56;100173.97;4941653;28;20709;-59
2022/04/06 06:58:50;;;;;;;12.82;2.53;;;;;;;12.62;62.21;100168.78;4952047;28;20363;-60
2022/04/06 07:01:15;;;;;;;10.38;2.38;;;;;;;12.40;63.39;100162.78;4961503;28;20242;-60
2022/04/06 07:03:41;;;;;;;11.07;1.98;;;;;;;12.38;63.88;100161.94;4951563;28;20042;-59
2022/04/06 07:06:06;;;;;;;9.32;2.05;;;;;;;12.46;63.64;100166.25;4945713;28;20050;-61
2022/04/06 07:08:31;;;;;;;10.15;2.50;;;;;;;12.50;63.59;100154.88;4958268;28;20074;-59
2022/04/06 07:10:57;;;;;;;13.35;2.28;;;;;;;12.56;63.18;100151.38;4953272;28;20541;-59
2022/04/06 07:13:23;;;;;;;13.48;2.53;;;;;;;12.53;63.16;100156.63;4952112;28;20042;-60
2022/04/06 07:15:48;;;;;;;11.10;2.30;;;;;;;12.66;63.00;100154.78;4950923;28;20113;-60
2022/04/06 07:18:21;;;;;;;10.85;1.92;;;;;;;12.63;62.72;100154.81;4945658;28;20281;-59
2022/04/06 07:20:47;;;;;;;13.40;2.38;;;;;;;12.59;63.11;100151.34;4955653;28;20042;-60
2022/04/06 07:23:13;;;;;;;13.70;2.33;;;;;;;12.61;64.22;100157.44;4953665;28;20476;-59
2022/04/06 07:25:40;;;;;;;14.43;2.53;;;;;;;12.59;65.17;100160.06;4945728;28;20089;-59
2022/04/06 07:28:06;;;;;;;14.98;2.38;;;;;;;12.41;66.07;100157.56;4944571;28;20121;-58
2022/04/06 07:30:32;;;;;;;12.50;2.55;;;;;;;12.46;66.37;100152.28;4958091;28;20061;-60
2022/04/06 07:32:58;;;;;;;12.23;2.58;;;;;;;12.34;66.60;100154.97;4950417;28;20485;-59
2022/04/06 07:35:24;;;;;;;18.40;2.53;;;;;;;12.35;66.66;100146.25;4948193;28;20141;-60
2022/04/06 07:37:55;;;;;;;12.38;2.60;;;;;;;12.34;66.84;100140.16;4954369;28;20269;-59
2022/04/06 07:40:22;;;;;;;18.13;2.78;;;;;;;12.31;67.03;100141.94;4948459;28;20046;-59
2022/04/06 07:42:49;;;;;;;13.05;2.65;;;;;;;12.46;66.84;100134.00;4952130;28;20042;-59
2022/04/06 07:45:17;;;;;;;12.48;2.65;;;;;;;12.54;66.61;100138.31;4949189;28;20125;-59
2022/04/06 07:47:43;;;;;;;16.52;2.70;;;;;;;12.63;66.24;100132.13;4949254;28;20062;-60
2022/04/06 07:50:09;;;;;;;14.25;2.42;;;;;;;12.58;66.45;100132.19;4951720;28;20221;-59
2022/04/06 07:52:36;;;;;;;17.75;3.25;;;;;;;12.65;66.10;100133.00;4954388;28;21020;-60
2022/04/06 07:55:04;;;;;;;17.73;2.63;;;;;;;12.80;65.86;100116.34;4955290;28;20161;-59
2022/04/06 07:57:30;;;;;;;15.13;2.70;;;;;;;12.85;65.55;100122.41;4954125;28;20046;-61
2022/04/06 07:59:56;;;;;;;15.10;2.38;;;;;;;12.72;65.83;100112.91;4954157;28;20116;-59
2022/04/06 08:02:22;;;;;;;15.65;3.22;;;;;;;12.73;65.81;100122.50;4938689;28;20359;-59
2022/04/06 08:04:47;;;;;;;18.67;3.20;;;;;;;12.85;65.64;100123.28;4949028;28;20417;-58
2022/04/06 08:07:13;;;;;;;17.20;3.05;;;;;;;12.94;65.24;100130.16;4941651;28;20045;-59
2022/04/06 08:09:38;;;;;;;16.23;2.97;;;;;;;12.92;65.10;100126.72;4949928;28;20042;-58
2022/04/06 08:12:05;;;;;;;16.77;2.90;;;;;;;12.91;65.50;100115.38;4942579;28;20038;-59
2022/04/06 08:14:30;;;;;;;12.77;2.95;;;;;;;12.85;65.47;100114.56;4938387;28;20344;-58
2022/04/06 08:16:56;;;;;;;18.90;3.10;;;;;;;12.67;66.25;100133.88;4949624;28;20042;-59
2022/04/06 08:19:23;;;;;;;16.58;3.10;;;;;;;12.75;65.79;100118.97;4949120;28;20576;-60
2022/04/06 08:21:50;;;;;;;18.00;3.35;;;;;;;12.70;66.38;100127.72;4953736;28;20426;-59
2022/04/06 08:24:15;;;;;;;17.90;3.42;;;;;;;12.63;66.97;100086.81;4947310;28;20512;-59
2022/04/06 08:26:41;;;;;;;18.88;3.10;;;;;;;12.56;67.46;100117.41;4948160;28;20295;-59
2022/04/06 08:29:06;;;;;;;15.85;2.88;;;;;;;12.73;67.54;100109.41;4955638;28;20445;-58
2022/04/06 08:31:31;;;;;;;18.95;3.38;;;;;;;12.74;67.57;100108.53;4948569;28;20698;-59
2022/04/06 08:33:57;;;;;;;19.13;3.13;;;;;;;12.77;67.66;100114.59;4949958;28;20251;-60
2022/04/06 08:36:23;;;;;;;15.45;3.10;;;;;;;12.88;67.50;100104.91;4954762;28;20363;-60
2022/04/06 08:38:48;;;;;;;18.02;3.15;;;;;;;12.84;67.82;100108.44;4951495;28;20055;-59
2022/04/06 08:41:15;;;;;;;18.13;3.22;;;;;;;12.78;67.70;100103.28;4945115;28;20109;-59
2022/04/06 08:43:41;;;;;;;19.58;3.42;;;;;;;12.89;67.72;100096.19;4939983;28;20101;-59
2022/04/06 08:46:10;;;;;;;17.48;3.38;;;;;;;12.88;67.95;100084.00;4937544;28;20318;-59
2022/04/06 08:48:36;;;;;;;16.10;3.15;;;;;;;12.96;67.42;100095.28;4942214;28;20042;-58
2022/04/06 08:51:04;;;;;;;15.43;3.03;;;;;;;13.00;67.08;100083.88;4956125;28;20046;-59
2022/04/06 08:53:30;;;;;;;18.42;3.17;;;;;;;13.13;66.93;100087.28;4942941;28;20050;-59
2022/04/06 08:55:55;;;;;;;19.33;3.50;;;;;;;13.21;66.39;100087.22;4954285;28;20038;-62
2022/04/06 08:58:20;;;;;;;19.13;3.35;;;;;;;13.23;66.17;100088.09;4941663;28;22486;-59
2022/04/06 09:00:46;;;;;;;21.98;3.63;;;;;;;13.39;66.44;100093.16;4950405;28;20055;-59
2022/04/06 09:03:13;;;;;;;23.25;3.70;;;;;;;13.61;65.66;100090.28;4949022;28;20800;-59
2022/04/06 09:05:38;;;;;;;19.50;3.55;;;;;;;13.76;64.72;100092.72;4952522;28;20101;-59
2022/04/06 09:08:04;;;;;;;21.85;4.22;;;;;;;13.61;65.28;100083.28;4944325;28;20046;-60
2022/04/06 09:10:38;;;;;;;20.88;3.28;;;;;;;13.82;64.24;100093.53;4948939;28;20046;-59
2022/04/06 09:13:11;;;;;;;15.90;3.30;;;;;;;13.81;64.45;100085.69;4951086;28;20138;-60
2022/04/06 09:15:37;;;;;;;15.38;2.95;;;;;;;13.80;64.28;100099.66;4946590;28;20046;-61
2022/04/06 09:18:03;;;;;;;23.58;3.60;;;;;;;14.01;63.54;100090.66;4942623;28;20050;-61
2022/04/06 09:20:29;;;;;;;23.17;3.70;;;;;;;13.98;64.03;100090.69;4939279;28;20077;-60
2022/04/06 09:22:55;;;;;;;16.63;3.35;;;;;;;14.22;63.15;100086.00;4947404;28;20046;-60
2022/04/06 09:25:20;;;;;;;23.02;4.10;;;;;;;14.32;63.22;100086.75;4951182;28;20112;-59
2022/04/06 09:27:46;;;;;;;22.58;3.55;;;;;;;14.26;62.72;100081.59;4950952;28;20060;-61
2022/04/06 09:30:12;;;;;;;16.40;3.08;;;;;;;14.10;62.50;100096.66;4939166;28;20227;-60
2022/04/06 09:32:40;;;;;;;18.00;3.70;;;;;;;14.00;62.87;100087.19;4949440;28;20054;-59
2022/04/06 09:35:26;;;;;;;20.85;3.40;;;;;;;14.16;63.01;100090.44;4953962;28;20054;-59
2022/04/06 09:38:11;;;;;;;18.45;3.35;;;;;;;14.34;62.59;100086.69;4944285;28;21206;-58
2022/04/06 09:40:37;;;;;;;15.93;3.47;;;;;;;14.64;61.72;100074.94;4954781;28;20081;-59
2022/04/06 09:43:04;;;;;;;14.90;3.17;;;;;;;14.46;62.04;100076.06;4947301;28;20042;-59
2022/04/06 09:48:13;;;;;;;19.98;3.67;;;;;;;14.69;61.49;100073.97;4937051;28;21953;-59
2022/04/06 09:50:39;;;;;;;21.80;3.80;;;;;;;15.11;61.28;100071.50;4955229;28;20042;-60
2022/04/06 09:53:06;;;;;;;14.10;3.08;;;;;;;15.50;60.44;100064.63;4948332;28;20043;-59
2022/04/06 09:55:32;;;;;;;18.88;3.42;;;;;;;15.73;59.13;100065.09;4947002;28;20074;-60
2022/04/06 09:57:59;;;;;;;22.60;3.97;;;;;;;15.69;59.16;100064.28;4949550;28;20052;-61
2022/04/06 10:00:30;;;;;;;19.67;3.40;;;;;;;15.91;58.13;100061.22;4953048;28;20045;-59
2022/04/06 10:03:10;;;;;;;20.85;4.10;;;;;;;15.81;57.59;100053.50;4948710;28;20070;-59
2022/04/06 10:05:38;;;;;;;20.70;3.40;;;;;;;15.76;58.16;100063.25;4955247;28;20054;-61
2022/04/06 10:08:06;;;;;;;16.90;3.17;;;;;;;15.57;57.68;100047.88;4945462;28;20121;-59
2022/04/06 10:10:32;;;;;;;17.98;3.38;;;;;;;15.08;58.86;100046.16;4953370;28;20149;-59
2022/04/06 10:12:59;;;;;;;19.17;3.50;;;;;;;14.69;60.40;100052.13;4954141;28;20046;-59
2022/04/06 10:15:25;;;;;;;14.10;2.95;;;;;;;14.98;59.82;100053.34;4937601;28;20475;-60
2022/04/06 10:17:52;;;;;;;17.30;3.20;;;;;;;15.02;59.54;100051.53;4944369;28;20039;-59
2022/04/06 10:20:23;;;;;;;15.75;2.95;;;;;;;14.94;59.67;100050.81;4940280;28;21302;-60
2022/04/06 10:22:59;;;;;;;16.38;2.92;;;;;;;14.93;59.76;100056.94;4958150;28;20023;-59
2022/04/06 10:25:40;;;;;;;17.58;2.88;;;;;;;14.83;59.84;100047.50;4947924;28;20418;-59
2022/04/06 10:28:11;;;;;;;17.67;3.10;;;;;;;14.61;60.12;100044.38;4951338;28;20042;-60
2022/04/06 10:30:36;;;;;;;16.10;2.45;;;;;;;14.59;59.86;100047.00;4949735;28;20528;-60
2022/04/06 10:33:21;;;;;;;15.95;2.85;;;;;;;14.61;60.38;100029.50;4950823;28;20038;-60
2022/04/06 10:35:46;;;;;;;13.55;2.75;;;;;;;14.74;60.23;100024.03;4944689;28;20129;-58
2022/04/06 10:38:16;;;;;;;10.73;2.50;;;;;;;15.10;58.65;100022.53;4942410;28;20056;-59
2022/04/06 10:40:45;;;;;;;11.20;2.35;;;;;;;15.12;58.72;100024.25;4952627;28;20050;-60
2022/04/06 10:43:40;;;;;;;12.98;2.47;;;;;;;15.14;58.95;100019.81;4949935;28;20060;-60
2022/04/06 10:46:08;;;;;;;;;;;;;;;15.46;58.28;100015.69;4949467;28;20663;-59
2022/04/06 10:48:35;;;;;;;9.23;2.15;;;;;;;15.59;57.19;100007.56;4950886;28;19979;-60
2022/04/06 10:51:26;;;;;;;10.20;2.10;;;;;;;15.66;57.10;100021.44;4951505;28;20232;-60
2022/04/06 10:53:54;;;;;;;12.75;2.58;;;;;;;15.22;58.31;100017.03;4949690;28;20105;-59
2022/04/06 10:56:19;;;;;;;12.48;2.67;;;;;;;15.28;58.09;100012.53;4956296;28;20163;-61
2022/04/06 10:59:09;;;;;;;11.35;2.58;;;;;;;15.20;58.14;100006.56;4956835;28;20129;-60
2022/04/06 11:01:35;;;;;;;11.27;2.58;;;;;;;15.34;58.15;100022.06;4945752;28;20109;-59
2022/04/06 11:04:09;;;;;;;10.88;2.67;;;;;;;15.05;57.95;100014.75;4937356;28;20046;-59
2022/04/06 11:06:52;;;;;;;12.18;2.83;;;;;;;15.03;58.53;100004.25;4957181;28;20042;-58
2022/04/06 11:12:27;;;;;;;11.10;2.70;;;;;;;15.08;58.41;100006.78;4946606;28;20049;-60
2022/04/06 11:14:52;;;;;;;11.38;2.60;;;;;;;14.87;58.97;100000.19;4954522;28;20046;-58
2022/04/06 11:17:32;;;;;;;9.43;2.42;;;;;;;14.86;59.05;100002.84;4948688;28;20035;-59
2022/04/06 11:19:59;;;;;;;11.30;2.78;;;;;;;14.58;59.89;99995.44;4950114;28;20228;-61
2022/04/06 11:22:24;;;;;;;7.57;2.38;;;;;;;14.70;59.64;99989.09;4950064;28;20488;-59
2022/04/06 11:24:50;;;;;;;7.78;2.30;;;;;;;14.97;58.77;99993.00;4955829;28;20255;-59
2022/04/06 11:27:35;;;;;;;11.27;2.45;;;;;;;14.83;59.19;100001.13;4953545;28;20047;-59